• Join FlightAware (Why Join?)
  • Login
  • US Flag 
01:22AM EST


 

Airport Tracker/Info


-or-


 

Live Flight TrackerFlight Track Log ✈ DAL6201 ✈ 25-Apr-2013 ✈ KPIT - KLGA

Flight Track Log - Related Links

Times and Time Zones

All times are in EDT time to prevent confusion due to time zone crossing. See the DAL6201 flight status page for this flight to view local times or setup timezone preferences in your user account.

Time Position Orientation Groundspeed Altitude Reporting Facility
EDT Latitude Longitude Course Direction KTS MPH feet Rate Location/Type
09:15PM 40.5025 -80.2756 265° West 153 176 2,600  Level FAA TRACON SMA TRACON (SMA)
09:15PM 40.5014 -80.2928 265° West 157 181 3,400 2,550 Climbing FAA TRACON SMA TRACON (SMA)
09:16PM 40.5131 -80.3128 308° West 193 222 4,300 2,049 Climbing FAA TRACON SMA TRACON (SMA)
09:16PM 40.5283 -80.3139 357° North 212 244 4,800 1,692 Climbing FAA TRACON SMA TRACON (SMA)
09:16PM 40.5481 -80.3000 28° Northeast 251 289 5,400 1,800 Climbing FAA TRACON SMA TRACON (SMA)
09:17PM 40.5592 -80.2744 60° Northeast 273 314 6,000 1,950 Climbing FAA TRACON SMA TRACON (SMA)
09:17PM 40.5661 -80.2361 77° East 287 330 6,700 1,950 Climbing FAA TRACON SMA TRACON (SMA)
09:17PM 40.5686 -80.2033 84° East 297 342 7,300 2,049 Climbing FAA TRACON SMA TRACON (SMA)
09:18PM 40.5717 -80.1703 83° East 294 338 8,100 2,308 Climbing FAA TRACON SMA TRACON (SMA)
09:18PM 40.5756 -80.1294 83° East 300 345 8,800 2,400 Climbing FAA TRACON SMA TRACON (SMA)
09:18PM 40.5786 -80.0933 84° East 307 353 9,700 2,341 Climbing FAA TRACON SMA TRACON (SMA)
09:19PM 40.5819 -80.0586 83° East 309 356 10,400 1,385 Climbing FAA TRACON SMA TRACON (SMA)
09:19PM 40.5850 -80.0231 84° East 315 362 10,600 750 Climbing FAA TRACON SMA TRACON (SMA)
09:19PM 40.5894 -79.9736 83° East 357 411 10,900 1,350 Climbing FAA TRACON SMA TRACON (SMA)
09:20PM 40.5931 -79.9336 83° East 360 414 11,500 1,950 Climbing FAA TRACON SMA TRACON (SMA)
09:20PM 40.5989 -79.8883 80° East 363 418 12,200 2,341 Climbing FAA TRACON SMA TRACON (SMA)
09:20PM 40.6008 -79.8417 87° East 365 420 13,100 2,154 Climbing FAA TRACON SMA TRACON (SMA)
09:21PM 40.6044 -79.8006 83° East 366 421 13,600 1,650 Climbing FAA TRACON SMA TRACON (SMA)
09:21PM 40.6111 -79.7519 80° East 373 429 14,200 2,100 Climbing FAA TRACON SMA TRACON (SMA)
09:21PM 40.6131 -79.7036 87° East 384 442 15,000 2,100 Climbing FAA TRACON SMA TRACON (SMA)
09:22PM 40.6169 -79.6594 83° East 388 447 15,600 1,610 Climbing FAA TRACON SMA TRACON (SMA)
09:22PM 40.6244 -79.6086 79° East 396 456 16,100 1,538 Climbing FAA TRACON SMA TRACON (SMA)
09:22PM 40.6261 -79.5572 88° East 408 470 16,600 1,322 Climbing FAA TRACON SMA TRACON (SMA)
09:23PM 40.6344 -79.4619 83° East 427 491 17,400 1,279 Climbing FAA TRACON SMA TRACON (SMA)
09:23PM 40.6394 -79.4006 84° East 436 502 17,900 878 Climbing FAA TRACON SMA TRACON (SMA)
09:24PM 40.6433 -79.3508 84° East 442 509 18,000 769 Climbing FAA TRACON SMA TRACON (SMA)
09:24PM 40.6478 -79.3006 83° East 446 513 18,400 1,350 Climbing FAA TRACON SMA TRACON (SMA)
09:24PM 40.6528 -79.2369 84° East 454 522 18,900 1,463 Climbing FAA TRACON SMA TRACON (SMA)
09:25PM 40.6578 -79.1858 83° East 455 524 19,400 1,692 Climbing FAA TRACON SMA TRACON (SMA)
09:25PM 40.6619 -79.1350 84° East 456 525 20,000 1,500 Climbing FAA TRACON SMA TRACON (SMA)
09:25PM 40.6739 -79.0906 70° East 455 524 20,400 1,579 Climbing FAA TRACON SMA TRACON (SMA)
09:26PM 40.6814 -78.9922 84° East 451 519 21,500 2,250 Climbing Cleveland Center
09:27PM 40.6936 -78.8306 84° East 451 519 24,000 2,200 Climbing Cleveland Center
09:28PM 40.7075 -78.6547 84° East 441 507 25,900 1,500 Climbing Cleveland Center
09:29PM 40.7233 -78.4928 83° East 441 507 27,000 342 Climbing Cleveland Center
09:31PM 40.8219 -78.1675 68° East 435 501 27,000  Level New York Center
09:32PM 40.8947 -78.0353 54° Northeast 435 501 27,000  Level New York Center
09:33PM 40.9278 -77.8711 75° East 440 506 27,000  Level New York Center
09:34PM 40.9419 -77.6994 84° East 453 521 27,000  Level New York Center
09:35PM 40.9567 -77.5167 84° East 477 549 27,000 -102 Level New York Center
09:36PM 40.9708 -77.3422 84° East 483 556 26,800 -807 Descending New York Center
09:37PM 40.9844 -77.1675 84° East 483 556 25,400 -1,377 Descending New York Center
09:38PM 40.9978 -76.9956 84° East 472 543 24,000 -1,350 Descending New York Center
09:39PM 41.0106 -76.8289 84° East 466 536 22,700 -1,311 Descending New York Center
09:40PM 41.0186 -76.6700 86° East 453 521 21,400 -1,250 Descending New York Center
09:41PM 40.9883 -76.5244 105° East 412 474 20,200 -1,289 Descending New York Center
09:42PM 40.9572 -76.3872 107° East 405 466 18,800 -1,109 Descending New York Center
09:43PM 40.9278 -76.2639 107° East 394 453 18,000 -700 Descending New York Center
09:44PM 40.8942 -76.1294 108° East 389 448 17,400 -1,140 Descending New York Center
09:45PM 40.8592 -75.9814 107° East 389 448 15,700 -1,613 Descending New York Center
09:46PM 40.8253 -75.8525 109° East 384 442 14,200 -1,289 Descending New York Center
09:47PM 40.7950 -75.7269 108° East 370 426 13,100 -600 Descending New York Center
09:48PM 40.7644 -75.6097 109° East 353 406 13,000 -51 Descending New York Center
09:49PM 40.7381 -75.4956 107° East 358 412 13,000  Level New York Center
09:50PM 40.7097 -75.3675 106° East 358 412 13,000  Level New York Center
09:51PM 40.6814 -75.2344 106° East 372 428 13,000 -750 Level New York Center
09:52PM 40.6381 -75.1139 115° Southeast 363 418 11,500 -1,462 Descending New York Center
09:53PM 40.5747 -75.0169 131° Southeast 350 403 10,100 -738 Descending New York Center
09:54PM 40.5317 -74.8861 113° Southeast 350 403 10,000 -58 Descending New York Center
09:55PM 40.5000 -74.8000 116° Southeast 358 412 10,000  Level New York TRACON
09:56PM 40.4667 -74.6833 111° Southeast 356 410 10,000  Level New York TRACON
09:57PM 40.4333 -74.5500 108° East 357 411 10,000  Level New York TRACON
09:58PM 40.4667 -74.4333 69° East 359 413 10,000  Level New York TRACON
09:59PM 40.5000 -74.3000 72° East 323 372 10,000 -810 Level New York TRACON
10:00PM 40.5167 -74.2000 78° East 293 337 8,300 -1,700 Descending New York TRACON
10:01PM 40.5833 -74.1333 37° Northeast 279 321 6,600 -1,700 Descending New York TRACON
10:02PM 40.6333 -74.0833 37° Northeast 271 312 4,900 -1,300 Descending New York TRACON
10:03PM 40.7000 -74.0333 30° Northeast 263 303 4,000 -450 Descending New York TRACON
10:04PM 40.7667 -74.0000 21° North 267 307 4,000  Level New York TRACON
10:05PM 40.8333 -73.9667 21° North 270 311 4,000 -421 Level New York TRACON
10:06PM 40.9000 -73.9000 37° Northeast 270 311 3,200 -526 Descending New York TRACON
10:07PM 40.9333 -73.8500 49° Northeast 260 299 3,000 -100 Descending New York TRACON
10:08PM 40.9500 -73.7667 75° East 217 250 3,000  Level New York TRACON
10:09PM 40.9167 -73.7667 180° South 174 200 3,000 -316 Level New York TRACON
10:10PM 40.8833 -73.8000 217° Southwest 166 191 2,400 -800 Descending New York TRACON
10:11PM 40.8500 -73.8167 201° Southwest 133 153 1,400 -810 Descending New York TRACON
10:12PM 40.8167 -73.8500 217° Southwest 125 144 700 -636 Descending New York TRACON
10:14PM 40.7772 -73.8726 131° Southeast  Level Estimated
10:21PM 40.7772 -73.8726 131° Southeast  Level Estimated